sensor_id;sensor_type;location;lat;lon;timestamp;pressure;altitude;pressure_sealevel;temperature;humidity
44044;BME280;29709;52.396;16.796;2023-05-11T00:03:09;101828.20;;;13.50;47.12
44044;BME280;29709;52.396;16.796;2023-05-11T00:06:22;101823.37;;;13.52;47.02
44044;BME280;29709;52.396;16.796;2023-05-11T00:09:35;101823.01;;;13.47;47.05
44044;BME280;29709;52.396;16.796;2023-05-11T00:13:16;101817.82;;;13.44;47.04
44044;BME280;29709;52.396;16.796;2023-05-11T00:16:29;101820.08;;;13.49;46.99
44044;BME280;29709;52.396;16.796;2023-05-11T00:19:42;101814.55;;;13.49;46.89
44044;BME280;29709;52.396;16.796;2023-05-11T00:22:55;101822.95;;;13.39;46.86
44044;BME280;29709;52.396;16.796;2023-05-11T00:26:09;101819.48;;;13.37;46.75
44044;BME280;29709;52.396;16.796;2023-05-11T00:29:22;101817.20;;;13.33;46.97
44044;BME280;29709;52.396;16.796;2023-05-11T00:32:35;101817.06;;;13.34;46.57
44044;BME280;29709;52.396;16.796;2023-05-11T00:35:49;101817.52;;;13.29;47.06
44044;BME280;29709;52.396;16.796;2023-05-11T00:39:03;101822.71;;;13.33;46.85
44044;BME280;29709;52.396;16.796;2023-05-11T00:42:16;101815.27;;;13.25;46.91
44044;BME280;29709;52.396;16.796;2023-05-11T00:45:29;101814.75;;;13.12;47.02
44044;BME280;29709;52.396;16.796;2023-05-11T00:48:42;101823.20;;;13.10;47.06
44044;BME280;29709;52.396;16.796;2023-05-11T00:51:56;101824.40;;;13.08;46.77
44044;BME280;29709;52.396;16.796;2023-05-11T00:55:12;101823.29;;;13.00;47.32
44044;BME280;29709;52.396;16.796;2023-05-11T00:58:25;101826.37;;;12.97;46.94
44044;BME280;29709;52.396;16.796;2023-05-11T01:01:39;101820.86;;;12.97;46.71
44044;BME280;29709;52.396;16.796;2023-05-11T01:04:52;101817.16;;;12.89;47.12
44044;BME280;29709;52.396;16.796;2023-05-11T01:08:12;101829.84;;;12.82;47.36
44044;BME280;29709;52.396;16.796;2023-05-11T01:21:40;101819.70;;;12.82;47.10
44044;BME280;29709;52.396;16.796;2023-05-11T01:28:27;101819.99;;;12.79;46.65
44044;BME280;29709;52.396;16.796;2023-05-11T01:31:45;101812.91;;;12.77;46.78
44044;BME280;29709;52.396;16.796;2023-05-11T01:35:05;101820.86;;;12.80;47.12
44044;BME280;29709;52.396;16.796;2023-05-11T01:38:20;101818.42;;;12.77;46.82
44044;BME280;29709;52.396;16.796;2023-05-11T01:41:38;101822.38;;;12.74;46.73
44044;BME280;29709;52.396;16.796;2023-05-11T01:44:54;101819.78;;;12.73;46.97
44044;BME280;29709;52.396;16.796;2023-05-11T01:48:13;101821.11;;;12.68;46.93
44044;BME280;29709;52.396;16.796;2023-05-11T01:51:32;101821.11;;;12.68;46.82
44044;BME280;29709;52.396;16.796;2023-05-11T01:54:47;101825.59;;;12.69;46.70
44044;BME280;29709;52.396;16.796;2023-05-11T01:58:03;101822.13;;;12.67;46.77
44044;BME280;29709;52.396;16.796;2023-05-11T02:01:18;101832.37;;;12.57;46.79
44044;BME280;29709;52.396;16.796;2023-05-11T02:04:34;101834.80;;;12.60;47.18
44044;BME280;29709;52.396;16.796;2023-05-11T02:07:50;101829.93;;;12.54;46.73
44044;BME280;29709;52.396;16.796;2023-05-11T02:11:06;101826.21;;;12.46;46.48
44044;BME280;29709;52.396;16.796;2023-05-11T02:14:20;101827.50;;;12.51;46.86
44044;BME280;29709;52.396;16.796;2023-05-11T02:17:38;101827.08;;;12.46;46.63
44044;BME280;29709;52.396;16.796;2023-05-11T02:20:52;101837.08;;;12.47;46.87
44044;BME280;29709;52.396;16.796;2023-05-11T02:24:07;101835.09;;;12.39;47.20
44044;BME280;29709;52.396;16.796;2023-05-11T02:27:21;101824.92;;;12.40;46.94
44044;BME280;29709;52.396;16.796;2023-05-11T02:30:40;101837.78;;;12.31;47.19
44044;BME280;29709;52.396;16.796;2023-05-11T02:33:59;101840.83;;;12.28;46.92
44044;BME280;29709;52.396;16.796;2023-05-11T02:37:20;101845.78;;;12.25;47.16
44044;BME280;29709;52.396;16.796;2023-05-11T02:40:43;101846.48;;;12.27;47.21
44044;BME280;29709;52.396;16.796;2023-05-11T02:44:02;101853.20;;;12.24;47.07
44044;BME280;29709;52.396;16.796;2023-05-11T02:47:17;101852.92;;;12.18;47.01
44044;BME280;29709;52.396;16.796;2023-05-11T02:50:36;101855.84;;;12.16;47.31
44044;BME280;29709;52.396;16.796;2023-05-11T02:53:53;101850.37;;;12.06;47.41
44044;BME280;29709;52.396;16.796;2023-05-11T02:57:09;101855.45;;;12.11;47.49
44044;BME280;29709;52.396;16.796;2023-05-11T03:00:23;101851.98;;;12.09;47.29
44044;BME280;29709;52.396;16.796;2023-05-11T03:03:36;101849.50;;;12.06;47.55
44044;BME280;29709;52.396;16.796;2023-05-11T03:06:49;101853.92;;;11.99;47.75
44044;BME280;29709;52.396;16.796;2023-05-11T03:10:02;101860.16;;;11.91;47.83
44044;BME280;29709;52.396;16.796;2023-05-11T03:13:18;101861.90;;;11.92;47.54
44044;BME280;29709;52.396;16.796;2023-05-11T03:16:32;101857.66;;;11.98;47.72
44044;BME280;29709;52.396;16.796;2023-05-11T03:19:47;101851.28;;;11.97;48.00
44044;BME280;29709;52.396;16.796;2023-05-11T03:23:01;101854.90;;;11.98;47.38
44044;BME280;29709;52.396;16.796;2023-05-11T03:26:16;101860.41;;;11.98;47.65
44044;BME280;29709;52.396;16.796;2023-05-11T03:29:31;101856.08;;;11.95;47.50
44044;BME280;29709;52.396;16.796;2023-05-11T03:32:50;101869.14;;;11.93;47.50
44044;BME280;29709;52.396;16.796;2023-05-11T03:36:04;101864.66;;;11.92;47.79
44044;BME280;29709;52.396;16.796;2023-05-11T03:39:18;101873.67;;;11.84;47.63
44044;BME280;29709;52.396;16.796;2023-05-11T03:42:33;101868.74;;;11.88;48.10
44044;BME280;29709;52.396;16.796;2023-05-11T03:45:52;101869.85;;;11.95;47.66
44044;BME280;29709;52.396;16.796;2023-05-11T03:49:06;101867.81;;;11.97;47.50
44044;BME280;29709;52.396;16.796;2023-05-11T03:52:20;101867.53;;;12.00;47.98
44044;BME280;29709;52.396;16.796;2023-05-11T03:55:34;101865.48;;;12.02;47.59
44044;BME280;29709;52.396;16.796;2023-05-11T03:58:48;101871.98;;;12.11;47.53
44044;BME280;29709;52.396;16.796;2023-05-11T04:02:02;101867.12;;;12.23;47.52
44044;BME280;29709;52.396;16.796;2023-05-11T04:05:15;101862.59;;;12.31;46.99
44044;BME280;29709;52.396;16.796;2023-05-11T04:08:30;101866.05;;;12.33;47.14
44044;BME280;29709;52.396;16.796;2023-05-11T04:11:44;101867.47;;;12.37;47.27
44044;BME280;29709;52.396;16.796;2023-05-11T04:14:57;101866.70;;;12.45;46.85
44044;BME280;29709;52.396;16.796;2023-05-11T04:18:10;101872.16;;;12.55;46.66
44044;BME280;29709;52.396;16.796;2023-05-11T04:21:23;101875.02;;;12.63;46.34
44044;BME280;29709;52.396;16.796;2023-05-11T04:24:37;101864.20;;;12.69;47.00
44044;BME280;29709;52.396;16.796;2023-05-11T04:27:50;101861.93;;;12.65;46.18
44044;BME280;29709;52.396;16.796;2023-05-11T04:31:03;101864.69;;;12.65;46.36
44044;BME280;29709;52.396;16.796;2023-05-11T04:34:17;101867.12;;;12.68;46.19
44044;BME280;29709;52.396;16.796;2023-05-11T04:37:30;101868.15;;;12.67;46.18
44044;BME280;29709;52.396;16.796;2023-05-11T04:40:43;101867.12;;;12.68;46.36
44044;BME280;29709;52.396;16.796;2023-05-11T04:43:57;101875.81;;;12.73;46.37
44044;BME280;29709;52.396;16.796;2023-05-11T04:47:11;101870.13;;;12.75;46.33
44044;BME280;29709;52.396;16.796;2023-05-11T04:50:24;101879.12;;;12.77;46.27
44044;BME280;29709;52.396;16.796;2023-05-11T04:53:37;101874.79;;;12.74;46.38
44044;BME280;29709;52.396;16.796;2023-05-11T04:56:50;101872.64;;;12.68;46.75
44044;BME280;29709;52.396;16.796;2023-05-11T05:00:05;101885.01;;;12.82;46.67
44044;BME280;29709;52.396;16.796;2023-05-11T05:03:19;101883.86;;;12.84;46.49
44044;BME280;29709;52.396;16.796;2023-05-11T05:06:32;101884.49;;;12.96;46.57
44044;BME280;29709;52.396;16.796;2023-05-11T05:09:45;101886.68;;;13.10;46.43
44044;BME280;29709;52.396;16.796;2023-05-11T05:12:58;101885.14;;;13.25;46.13
44044;BME280;29709;52.396;16.796;2023-05-11T05:16:11;101896.01;;;13.45;45.78
44044;BME280;29709;52.396;16.796;2023-05-11T05:19:25;101885.84;;;13.45;45.55
44044;BME280;29709;52.396;16.796;2023-05-11T05:22:38;101885.49;;;13.74;45.60
44044;BME280;29709;52.396;16.796;2023-05-11T05:25:51;101889.18;;;13.83;44.93
44044;BME280;29709;52.396;16.796;2023-05-11T05:29:04;101891.78;;;13.84;45.10
44044;BME280;29709;52.396;16.796;2023-05-11T05:32:18;101903.87;;;14.09;45.07
44044;BME280;29709;52.396;16.796;2023-05-11T05:35:32;101898.03;;;14.55;44.46
44044;BME280;29709;52.396;16.796;2023-05-11T05:38:45;101896.59;;;14.93;43.96
44044;BME280;29709;52.396;16.796;2023-05-11T05:41:58;101905.29;;;15.22;43.27
44044;BME280;29709;52.396;16.796;2023-05-11T05:45:12;101901.81;;;15.28;42.62
44044;BME280;29709;52.396;16.796;2023-05-11T05:48:25;101898.68;;;15.31;43.05
44044;BME280;29709;52.396;16.796;2023-05-11T05:51:38;101900.28;;;15.67;42.38
44044;BME280;29709;52.396;16.796;2023-05-11T05:54:51;101906.83;;;15.49;42.28
44044;BME280;29709;52.396;16.796;2023-05-11T05:58:04;101908.23;;;15.62;42.60
44044;BME280;29709;52.396;16.796;2023-05-11T06:01:17;101916.87;;;15.91;42.34
44044;BME280;29709;52.396;16.796;2023-05-11T06:04:32;101920.86;;;15.97;42.46
44044;BME280;29709;52.396;16.796;2023-05-11T06:07:45;101922.91;;;16.03;42.12
44044;BME280;29709;52.396;16.796;2023-05-11T06:10:58;101915.60;;;16.18;42.61
44044;BME280;29709;52.396;16.796;2023-05-11T06:14:11;101917.59;;;16.40;41.92
44044;BME280;29709;52.396;16.796;2023-05-11T06:17:24;101914.39;;;16.60;41.33
44044;BME280;29709;52.396;16.796;2023-05-11T06:20:39;101920.80;;;16.60;41.54
44044;BME280;29709;52.396;16.796;2023-05-11T06:23:53;101922.31;;;16.79;41.72
44044;BME280;29709;52.396;16.796;2023-05-11T06:27:06;101911.18;;;17.10;41.78
44044;BME280;29709;52.396;16.796;2023-05-11T06:30:19;101918.83;;;17.54;40.54
44044;BME280;29709;52.396;16.796;2023-05-11T06:33:32;101918.55;;;17.86;40.68
44044;BME280;29709;52.396;16.796;2023-05-11T06:36:47;101925.40;;;18.28;40.30
44044;BME280;29709;52.396;16.796;2023-05-11T06:40:01;101918.77;;;18.59;39.80
44044;BME280;29709;52.396;16.796;2023-05-11T06:43:14;101923.20;;;18.68;39.46
44044;BME280;29709;52.396;16.796;2023-05-11T06:46:27;101928.93;;;18.81;38.70
44044;BME280;29709;52.396;16.796;2023-05-11T06:49:41;101933.55;;;18.59;38.39
44044;BME280;29709;52.396;16.796;2023-05-11T06:52:54;101931.91;;;18.21;39.19
44044;BME280;29709;52.396;16.796;2023-05-11T06:56:08;101921.36;;;18.31;39.17
44044;BME280;29709;52.396;16.796;2023-05-11T06:59:21;101925.40;;;18.28;38.72
44044;BME280;29709;52.396;16.796;2023-05-11T07:02:34;101926.08;;;18.15;40.05
44044;BME280;29709;52.396;16.796;2023-05-11T07:05:47;101930.38;;;18.03;39.61
44044;BME280;29709;52.396;16.796;2023-05-11T07:09:01;101923.45;;;17.99;39.54
44044;BME280;29709;52.396;16.796;2023-05-11T07:12:15;101930.54;;;17.87;40.00
44044;BME280;29709;52.396;16.796;2023-05-11T07:15:28;101932.78;;;18.06;39.36
44044;BME280;29709;52.396;16.796;2023-05-11T07:18:42;101928.36;;;18.12;39.77
44044;BME280;29709;52.396;16.796;2023-05-11T07:21:55;101922.51;;;18.22;39.38
44044;BME280;29709;52.396;16.796;2023-05-11T07:25:08;101930.95;;;18.43;40.18
44044;BME280;29709;52.396;16.796;2023-05-11T07:28:22;101925.88;;;18.76;39.73
44044;BME280;29709;52.396;16.796;2023-05-11T07:31:35;101934.86;;;18.93;39.69
44044;BME280;29709;52.396;16.796;2023-05-11T07:34:49;101933.25;;;19.20;38.90
44044;BME280;29709;52.396;16.796;2023-05-11T07:38:02;101940.98;;;19.03;38.54
44044;BME280;29709;52.396;16.796;2023-05-11T07:41:19;101933.89;;;19.00;39.01
44044;BME280;29709;52.396;16.796;2023-05-11T07:44:38;101933.91;;;19.22;38.75
44044;BME280;29709;52.396;16.796;2023-05-11T07:47:51;101927.94;;;19.46;38.69
44044;BME280;29709;52.396;16.796;2023-05-11T07:51:05;101934.22;;;19.70;38.47
44044;BME280;29709;52.396;16.796;2023-05-11T07:54:19;101941.84;;;19.82;38.36
44044;BME280;29709;52.396;16.796;2023-05-11T07:57:32;101943.66;;;19.97;38.45
44044;BME280;29709;52.396;16.796;2023-05-11T08:00:46;101938.13;;;20.03;38.02
44044;BME280;29709;52.396;16.796;2023-05-11T08:03:59;101935.37;;;20.10;37.50
44044;BME280;29709;52.396;16.796;2023-05-11T08:07:12;101936.11;;;19.91;38.06
44044;BME280;29709;52.396;16.796;2023-05-11T08:10:25;101938.37;;;20.08;37.65
44044;BME280;29709;52.396;16.796;2023-05-11T08:13:38;101938.96;;;20.32;37.99
44044;BME280;29709;52.396;16.796;2023-05-11T08:16:52;101935.29;;;20.59;37.98
44044;BME280;29709;52.396;16.796;2023-05-11T08:20:06;101945.70;;;20.79;37.40
44044;BME280;29709;52.396;16.796;2023-05-11T08:23:20;101935.39;;;20.79;37.27
44044;BME280;29709;52.396;16.796;2023-05-11T08:27:22;101940.66;;;21.09;36.85
44044;BME280;29709;52.396;16.796;2023-05-11T08:30:35;101934.19;;;20.95;36.83
44044;BME280;29709;52.396;16.796;2023-05-11T08:33:48;101942.60;;;21.08;37.57
44044;BME280;29709;52.396;16.796;2023-05-11T08:37:01;101948.37;;;21.00;36.27
44044;BME280;29709;52.396;16.796;2023-05-11T08:40:16;101939.48;;;20.83;36.78
44044;BME280;29709;52.396;16.796;2023-05-11T08:43:33;101941.09;;;21.06;37.02
44044;BME280;29709;52.396;16.796;2023-05-11T08:46:48;101942.56;;;20.95;35.97
44044;BME280;29709;52.396;16.796;2023-05-11T08:50:05;101944.90;;;20.91;36.62
44044;BME280;29709;52.396;16.796;2023-05-11T08:53:18;101943.04;;;21.12;36.40
44044;BME280;29709;52.396;16.796;2023-05-11T08:56:33;101948.37;;;21.00;35.41
44044;BME280;29709;52.396;16.796;2023-05-11T08:59:48;101947.00;;;20.83;35.98
44044;BME280;29709;52.396;16.796;2023-05-11T09:03:03;101943.80;;;20.86;36.17
44044;BME280;29709;52.396;16.796;2023-05-11T09:06:18;101944.94;;;21.04;36.44
44044;BME280;29709;52.396;16.796;2023-05-11T09:09:32;101942.63;;;21.21;36.00
44044;BME280;29709;52.396;16.796;2023-05-11T09:12:46;101936.23;;;21.34;35.73
44044;BME280;29709;52.396;16.796;2023-05-11T09:15:59;101946.50;;;21.20;35.16
44044;BME280;29709;52.396;16.796;2023-05-11T09:19:15;101937.95;;;21.35;36.25
44044;BME280;29709;52.396;16.796;2023-05-11T09:22:32;101948.52;;;21.46;35.36
44044;BME280;29709;52.396;16.796;2023-05-11T09:25:47;101932.19;;;21.50;35.26
44044;BME280;29709;52.396;16.796;2023-05-11T09:29:01;101933.47;;;21.67;35.52
44044;BME280;29709;52.396;16.796;2023-05-11T09:32:15;101937.38;;;21.73;34.67
44044;BME280;29709;52.396;16.796;2023-05-11T09:35:31;101930.05;;;21.72;34.25
44044;BME280;29709;52.396;16.796;2023-05-11T09:38:45;101930.49;;;21.88;34.72
44044;BME280;29709;52.396;16.796;2023-05-11T09:45:34;101927.69;;;22.08;34.67
44044;BME280;29709;52.396;16.796;2023-05-11T09:52:17;101922.31;;;22.13;33.63
44044;BME280;29709;52.396;16.796;2023-05-11T09:55:32;101920.97;;;22.42;33.58
44044;BME280;29709;52.396;16.796;2023-05-11T09:58:50;101917.84;;;22.70;34.13
44044;BME280;29709;52.396;16.796;2023-05-11T10:05:33;101910.96;;;22.66;32.10
44044;BME280;29709;52.396;16.796;2023-05-11T10:08:47;101920.05;;;22.62;32.74
44044;BME280;29709;52.396;16.796;2023-05-11T10:12:02;101917.14;;;22.82;32.73
44044;BME280;29709;52.396;16.796;2023-05-11T10:15:17;101917.84;;;22.70;31.66
44044;BME280;29709;52.396;16.796;2023-05-11T10:18:39;101910.56;;;22.56;32.20
44044;BME280;29709;52.396;16.796;2023-05-11T10:21:54;101913.60;;;22.55;31.79
44044;BME280;29709;52.396;16.796;2023-05-11T10:25:09;101916.17;;;22.56;32.17
44044;BME280;29709;52.396;16.796;2023-05-11T10:28:23;101907.54;;;22.58;32.09
44044;BME280;29709;52.396;16.796;2023-05-11T10:31:36;101902.17;;;22.50;30.94
44044;BME280;29709;52.396;16.796;2023-05-11T10:34:50;101895.07;;;22.54;31.89
44044;BME280;29709;52.396;16.796;2023-05-11T10:38:05;101891.53;;;22.71;31.42
44044;BME280;29709;52.396;16.796;2023-05-11T10:55:13;101889.52;;;22.92;31.07
44044;BME280;29709;52.396;16.796;2023-05-11T11:01:53;101892.65;;;23.47;30.61
44044;BME280;29709;52.396;16.796;2023-05-11T11:05:13;101881.20;;;23.48;30.62
44044;BME280;29709;52.396;16.796;2023-05-11T11:08:56;101875.62;;;23.42;30.23
44044;BME280;29709;52.396;16.796;2023-05-11T11:12:07;101881.20;;;23.48;30.54
44044;BME280;29709;52.396;16.796;2023-05-11T11:15:16;101881.34;;;23.60;30.85
44044;BME280;29709;52.396;16.796;2023-05-11T11:18:31;101884.84;;;23.80;30.25
44044;BME280;29709;52.396;16.796;2023-05-11T11:21:47;101894.85;;;23.70;30.44
44044;BME280;29709;52.396;16.796;2023-05-11T11:25:01;101878.15;;;23.50;30.36
44044;BME280;29709;52.396;16.796;2023-05-11T11:28:17;101870.92;;;23.67;30.94
44044;BME280;29709;52.396;16.796;2023-05-11T11:31:31;101884.89;;;23.99;30.69
44044;BME280;29709;52.396;16.796;2023-05-11T11:34:46;101878.61;;;23.97;30.25
44044;BME280;29709;52.396;16.796;2023-05-11T11:38:01;101885.01;;;24.29;29.41
44044;BME280;29709;52.396;16.796;2023-05-11T11:44:40;101876.26;;;24.18;28.63
44044;BME280;29709;52.396;16.796;2023-05-11T11:51:18;101868.36;;;24.09;29.94
44044;BME280;29709;52.396;16.796;2023-05-11T11:54:46;101867.41;;;24.40;29.49
44044;BME280;29709;52.396;16.796;2023-05-11T11:57:56;101863.49;;;24.41;28.68
44044;BME280;29709;52.396;16.796;2023-05-11T12:01:19;101870.94;;;24.10;28.21
44044;BME280;29709;52.396;16.796;2023-05-11T12:04:38;101860.37;;;24.06;29.77
44044;BME280;29709;52.396;16.796;2023-05-11T12:07:53;101873.03;;;24.15;28.99
44044;BME280;29709;52.396;16.796;2023-05-11T12:11:06;101869.41;;;24.33;29.48
44044;BME280;29709;52.396;16.796;2023-05-11T12:14:21;101875.48;;;24.30;29.42
44044;BME280;29709;52.396;16.796;2023-05-11T12:17:37;101863.98;;;24.13;29.27
44044;BME280;29709;52.396;16.796;2023-05-11T12:20:50;101868.93;;;24.36;29.78
44044;BME280;29709;52.396;16.796;2023-05-11T12:24:04;101873.34;;;24.50;29.32
44044;BME280;29709;52.396;16.796;2023-05-11T12:27:18;101871.45;;;24.62;28.95
44044;BME280;29709;52.396;16.796;2023-05-11T12:30:32;101866.12;;;24.72;28.84
44044;BME280;29709;52.396;16.796;2023-05-11T12:33:50;101866.31;;;24.16;28.48
44044;BME280;29709;52.396;16.796;2023-05-11T12:37:05;101872.11;;;24.21;29.26
44044;BME280;29709;52.396;16.796;2023-05-11T12:40:18;101863.51;;;24.16;28.87
44044;BME280;29709;52.396;16.796;2023-05-11T12:43:32;101866.37;;;24.34;29.10
44044;BME280;29709;52.396;16.796;2023-05-11T12:46:46;101851.57;;;24.02;28.89
44044;BME280;29709;52.396;16.796;2023-05-11T12:50:00;101860.07;;;23.46;29.07
44044;BME280;29709;52.396;16.796;2023-05-11T12:53:14;101851.20;;;23.17;29.64
44044;BME280;29709;52.396;16.796;2023-05-11T12:56:28;101860.83;;;22.96;30.33
44044;BME280;29709;52.396;16.796;2023-05-11T12:59:41;101849.41;;;22.91;30.05
44044;BME280;29709;52.396;16.796;2023-05-11T13:02:55;101845.70;;;23.04;29.67
44044;BME280;29709;52.396;16.796;2023-05-11T13:06:11;101848.76;;;23.27;30.37
44044;BME280;29709;52.396;16.796;2023-05-11T13:09:25;101847.45;;;23.30;30.16
44044;BME280;29709;52.396;16.796;2023-05-11T13:12:48;101851.22;;;23.42;30.17
44044;BME280;29709;52.396;16.796;2023-05-11T13:16:03;101843.81;;;23.23;29.47
44044;BME280;29709;52.396;16.796;2023-05-11T13:19:26;101839.13;;;23.17;30.02
44044;BME280;29709;52.396;16.796;2023-05-11T13:22:48;101833.41;;;23.30;30.07
44044;BME280;29709;52.396;16.796;2023-05-11T13:26:02;101843.95;;;23.66;29.53
44044;BME280;29709;52.396;16.796;2023-05-11T13:29:16;101837.24;;;23.67;29.43
44044;BME280;29709;52.396;16.796;2023-05-11T13:32:30;101838.88;;;23.75;29.58
44044;BME280;29709;52.396;16.796;2023-05-11T13:35:43;101823.88;;;23.87;29.26
44044;BME280;29709;52.396;16.796;2023-05-11T13:38:59;101826.85;;;24.11;29.19
44044;BME280;29709;52.396;16.796;2023-05-11T13:42:12;101827.96;;;24.28;29.07
44044;BME280;29709;52.396;16.796;2023-05-11T13:45:25;101812.80;;;24.47;29.28
44044;BME280;29709;52.396;16.796;2023-05-11T13:48:38;101810.76;;;24.73;28.44
44044;BME280;29709;52.396;16.796;2023-05-11T13:51:52;101810.42;;;24.81;28.17
44044;BME280;29709;52.396;16.796;2023-05-11T13:55:07;101807.65;;;24.63;27.80
44044;BME280;29709;52.396;16.796;2023-05-11T13:58:20;101818.48;;;24.59;28.04
44044;BME280;29709;52.396;16.796;2023-05-11T14:01:34;101808.29;;;24.46;27.54
44044;BME280;29709;52.396;16.796;2023-05-11T14:04:47;101816.17;;;24.38;28.29
44044;BME280;29709;52.396;16.796;2023-05-11T14:08:00;101813.53;;;24.43;28.31
44044;BME280;29709;52.396;16.796;2023-05-11T14:11:13;101823.20;;;24.29;27.88
44044;BME280;29709;52.396;16.796;2023-05-11T14:14:27;101804.84;;;24.26;28.08
44044;BME280;29709;52.396;16.796;2023-05-11T14:17:40;101805.34;;;24.41;26.80
44044;BME280;29709;52.396;16.796;2023-05-11T14:20:54;101809.00;;;24.42;27.62
44044;BME280;29709;52.396;16.796;2023-05-11T14:24:08;101801.41;;;24.24;27.78
44044;BME280;29709;52.396;16.796;2023-05-11T14:27:22;101802.05;;;24.08;28.52
44044;BME280;29709;52.396;16.796;2023-05-11T14:30:35;101806.41;;;24.04;27.81
44044;BME280;29709;52.396;16.796;2023-05-11T14:33:48;101808.11;;;24.05;27.82
44044;BME280;29709;52.396;16.796;2023-05-11T14:37:04;101796.34;;;23.78;27.65
44044;BME280;29709;52.396;16.796;2023-05-11T14:40:17;101802.76;;;23.60;27.86
44044;BME280;29709;52.396;16.796;2023-05-11T14:43:31;101803.87;;;23.52;28.07
44044;BME280;29709;52.396;16.796;2023-05-11T14:46:44;101792.77;;;23.39;28.12
44044;BME280;29709;52.396;16.796;2023-05-11T14:49:57;101796.16;;;23.48;28.42
44044;BME280;29709;52.396;16.796;2023-05-11T14:53:11;101799.91;;;23.67;28.14
44044;BME280;29709;52.396;16.796;2023-05-11T14:56:24;101798.20;;;23.84;27.36
44044;BME280;29709;52.396;16.796;2023-05-11T14:59:38;101799.82;;;23.73;26.86
44044;BME280;29709;52.396;16.796;2023-05-11T15:02:51;101805.90;;;23.70;28.11
44044;BME280;29709;52.396;16.796;2023-05-11T15:06:05;101808.19;;;23.80;28.09
44044;BME280;29709;52.396;16.796;2023-05-11T15:09:18;101804.37;;;23.93;27.44
44044;BME280;29709;52.396;16.796;2023-05-11T15:12:37;101803.48;;;23.74;27.73
44044;BME280;29709;52.396;16.796;2023-05-11T15:15:51;101805.52;;;23.67;27.75
44044;BME280;29709;52.396;16.796;2023-05-11T15:19:04;101800.99;;;23.66;28.27
44044;BME280;29709;52.396;16.796;2023-05-11T15:22:18;101798.01;;;23.60;27.86
44044;BME280;29709;52.396;16.796;2023-05-11T15:25:32;101798.88;;;23.54;28.48
44044;BME280;29709;52.396;16.796;2023-05-11T15:28:45;101798.25;;;23.59;28.68
44044;BME280;29709;52.396;16.796;2023-05-11T15:31:58;101793.51;;;23.53;28.29
44044;BME280;29709;52.396;16.796;2023-05-11T15:35:11;101803.81;;;23.34;28.20
44044;BME280;29709;52.396;16.796;2023-05-11T15:38:26;101804.20;;;23.13;28.26
44044;BME280;29709;52.396;16.796;2023-05-11T15:41:40;101804.86;;;23.15;28.27
44044;BME280;29709;52.396;16.796;2023-05-11T15:44:53;101804.86;;;23.15;27.94
44044;BME280;29709;52.396;16.796;2023-05-11T15:48:09;101807.92;;;23.07;27.65
44044;BME280;29709;52.396;16.796;2023-05-11T15:51:23;101805.79;;;23.02;28.14
44044;BME280;29709;52.396;16.796;2023-05-11T15:54:36;101809.91;;;22.99;28.46
44044;BME280;29709;52.396;16.796;2023-05-11T15:57:50;101810.30;;;23.03;28.60
44044;BME280;29709;52.396;16.796;2023-05-11T16:01:03;101814.49;;;22.94;28.22
44044;BME280;29709;52.396;16.796;2023-05-11T16:04:16;101814.69;;;22.92;28.11
44044;BME280;29709;52.396;16.796;2023-05-11T16:07:29;101810.63;;;22.88;28.48
44044;BME280;29709;52.396;16.796;2023-05-11T16:10:43;101805.01;;;22.82;28.74
44044;BME280;29709;52.396;16.796;2023-05-11T16:13:56;101818.63;;;22.78;28.60
44044;BME280;29709;52.396;16.796;2023-05-11T16:17:10;101815.44;;;22.74;28.71
44044;BME280;29709;52.396;16.796;2023-05-11T16:20:23;101811.40;;;22.64;28.45
44044;BME280;29709;52.396;16.796;2023-05-11T16:23:36;101811.66;;;22.56;28.61
44044;BME280;29709;52.396;16.796;2023-05-11T16:26:50;101814.70;;;22.47;29.08
44044;BME280;29709;52.396;16.796;2023-05-11T16:30:03;101820.28;;;22.54;28.85
44044;BME280;29709;52.396;16.796;2023-05-11T16:33:18;101811.50;;;22.44;28.71
44044;BME280;29709;52.396;16.796;2023-05-11T16:36:32;101816.48;;;22.35;28.53
44044;BME280;29709;52.396;16.796;2023-05-11T16:39:45;101816.94;;;22.26;28.68
44044;BME280;29709;52.396;16.796;2023-05-11T16:42:59;101812.45;;;22.18;28.91
44044;BME280;29709;52.396;16.796;2023-05-11T16:46:13;101808.37;;;22.21;29.13
44044;BME280;29709;52.396;16.796;2023-05-11T16:49:26;101807.67;;;22.32;29.32
44044;BME280;29709;52.396;16.796;2023-05-11T16:52:40;101811.73;;;22.36;28.86
44044;BME280;29709;52.396;16.796;2023-05-11T16:55:54;101814.15;;;22.26;29.35
44044;BME280;29709;52.396;16.796;2023-05-11T16:59:08;101811.34;;;22.26;29.54
44044;BME280;29709;52.396;16.796;2023-05-11T17:02:22;101813.30;;;22.18;29.36
44044;BME280;29709;52.396;16.796;2023-05-11T17:05:35;101821.97;;;22.10;29.01
44044;BME280;29709;52.396;16.796;2023-05-11T17:08:49;101815.49;;;21.97;29.33
44044;BME280;29709;52.396;16.796;2023-05-11T17:12:07;101819.15;;;21.97;29.54
44044;BME280;29709;52.396;16.796;2023-05-11T17:15:22;101828.45;;;21.91;29.07
44044;BME280;29709;52.396;16.796;2023-05-11T17:18:35;101819.18;;;21.84;29.99
44044;BME280;29709;52.396;16.796;2023-05-11T17:21:48;101826.31;;;21.80;29.99
44044;BME280;29709;52.396;16.796;2023-05-11T17:25:02;101829.32;;;21.72;29.69
44044;BME280;29709;52.396;16.796;2023-05-11T17:28:17;101827.61;;;21.64;30.25
44044;BME280;29709;52.396;16.796;2023-05-11T17:31:31;101826.55;;;21.58;30.32
44044;BME280;29709;52.396;16.796;2023-05-11T17:34:44;101825.90;;;21.50;30.17